sensor_id;sensor_type;location;lat;lon;timestamp;temperature;humidity
56123;DHT22;42426;46.104;19.656;2023-12-28T00:01:33;154.30;2252.80
56123;DHT22;42426;46.104;19.656;2023-12-28T00:03:59;154.20;2252.80
56123;DHT22;42426;46.104;19.656;2023-12-28T00:06:24;154.20;2252.80
56123;DHT22;42426;46.104;19.656;2023-12-28T00:08:50;154.20;2252.80
56123;DHT22;42426;46.104;19.656;2023-12-28T00:11:16;154.20;2252.80
56123;DHT22;42426;46.104;19.656;2023-12-28T00:13:42;154.20;2252.80
56123;DHT22;42426;46.104;19.656;2023-12-28T00:16:07;154.20;2252.80
56123;DHT22;42426;46.104;19.656;2023-12-28T00:18:33;154.20;2252.80
56123;DHT22;42426;46.104;19.656;2023-12-28T00:20:59;154.20;2252.80
56123;DHT22;42426;46.104;19.656;2023-12-28T00:23:24;154.20;2252.80
56123;DHT22;42426;46.104;19.656;2023-12-28T00:25:50;154.20;2252.80
56123;DHT22;42426;46.104;19.656;2023-12-28T00:28:16;154.20;2252.80
56123;DHT22;42426;46.104;19.656;2023-12-28T00:30:42;154.20;2252.80
56123;DHT22;42426;46.104;19.656;2023-12-28T00:33:08;154.20;2252.80
56123;DHT22;42426;46.104;19.656;2023-12-28T00:35:34;154.20;2252.80
56123;DHT22;42426;46.104;19.656;2023-12-28T00:37:59;154.20;2252.80
56123;DHT22;42426;46.104;19.656;2023-12-28T00:40:25;154.20;2252.80
56123;DHT22;42426;46.104;19.656;2023-12-28T00:42:51;154.20;2252.80
56123;DHT22;42426;46.104;19.656;2023-12-28T00:45:17;154.20;2252.80
56123;DHT22;42426;46.104;19.656;2023-12-28T00:47:42;154.20;2252.80
56123;DHT22;42426;46.104;19.656;2023-12-28T00:50:09;154.20;2252.80
56123;DHT22;42426;46.104;19.656;2023-12-28T00:52:40;154.10;2252.80
56123;DHT22;42426;46.104;19.656;2023-12-28T00:55:06;154.10;2252.80
56123;DHT22;42426;46.104;19.656;2023-12-28T00:57:33;154.20;2252.80
56123;DHT22;42426;46.104;19.656;2023-12-28T00:59:59;154.10;2252.80
56123;DHT22;42426;46.104;19.656;2023-12-28T01:02:25;154.10;2252.80
56123;DHT22;42426;46.104;19.656;2023-12-28T01:04:50;154.10;2252.80
56123;DHT22;42426;46.104;19.656;2023-12-28T01:07:16;154.20;2252.80
56123;DHT22;42426;46.104;19.656;2023-12-28T01:09:42;154.20;2252.80
56123;DHT22;42426;46.104;19.656;2023-12-28T01:12:08;154.20;2252.80
56123;DHT22;42426;46.104;19.656;2023-12-28T01:14:34;154.10;2252.80
56123;DHT22;42426;46.104;19.656;2023-12-28T01:17:00;154.10;2252.80
56123;DHT22;42426;46.104;19.656;2023-12-28T01:19:25;154.10;2252.80
56123;DHT22;42426;46.104;19.656;2023-12-28T01:21:51;154.00;2252.80
56123;DHT22;42426;46.104;19.656;2023-12-28T01:24:17;154.00;2252.80
56123;DHT22;42426;46.104;19.656;2023-12-28T01:26:43;154.00;2252.80
56123;DHT22;42426;46.104;19.656;2023-12-28T01:29:09;154.00;2252.80
56123;DHT22;42426;46.104;19.656;2023-12-28T01:31:34;153.90;2252.80
56123;DHT22;42426;46.104;19.656;2023-12-28T01:34:00;153.90;2252.80
56123;DHT22;42426;46.104;19.656;2023-12-28T01:36:26;153.90;2252.80
56123;DHT22;42426;46.104;19.656;2023-12-28T01:38:54;153.90;2252.80
56123;DHT22;42426;46.104;19.656;2023-12-28T01:41:20;153.90;2252.80
56123;DHT22;42426;46.104;19.656;2023-12-28T01:43:46;153.90;2252.80
56123;DHT22;42426;46.104;19.656;2023-12-28T01:46:17;153.90;2252.80
56123;DHT22;42426;46.104;19.656;2023-12-28T01:48:45;153.90;2252.80
56123;DHT22;42426;46.104;19.656;2023-12-28T01:51:12;153.90;2252.80
56123;DHT22;42426;46.104;19.656;2023-12-28T01:53:38;153.90;2252.80
56123;DHT22;42426;46.104;19.656;2023-12-28T01:56:05;153.80;2252.80
56123;DHT22;42426;46.104;19.656;2023-12-28T01:58:33;153.80;2252.80
56123;DHT22;42426;46.104;19.656;2023-12-28T02:01:01;153.80;2252.80
56123;DHT22;42426;46.104;19.656;2023-12-28T02:03:27;153.80;2252.80
56123;DHT22;42426;46.104;19.656;2023-12-28T02:05:53;153.80;2252.80
56123;DHT22;42426;46.104;19.656;2023-12-28T02:08:19;153.80;2252.80
56123;DHT22;42426;46.104;19.656;2023-12-28T02:10:45;153.80;2252.80
56123;DHT22;42426;46.104;19.656;2023-12-28T02:13:11;153.70;2252.80
56123;DHT22;42426;46.104;19.656;2023-12-28T02:15:38;153.60;2252.80
56123;DHT22;42426;46.104;19.656;2023-12-28T02:18:19;153.60;2252.80
56123;DHT22;42426;46.104;19.656;2023-12-28T02:20:46;153.60;2252.80
56123;DHT22;42426;46.104;19.656;2023-12-28T02:23:12;153.60;2252.80
56123;DHT22;42426;46.104;19.656;2023-12-28T02:25:38;153.60;2252.80
56123;DHT22;42426;46.104;19.656;2023-12-28T02:28:04;153.70;2252.80
56123;DHT22;42426;46.104;19.656;2023-12-28T02:30:30;153.60;2252.80
56123;DHT22;42426;46.104;19.656;2023-12-28T02:33:26;153.70;2252.80
56123;DHT22;42426;46.104;19.656;2023-12-28T02:36:00;153.70;2252.80
56123;DHT22;42426;46.104;19.656;2023-12-28T02:38:28;153.60;2252.80
56123;DHT22;42426;46.104;19.656;2023-12-28T02:40:55;153.70;2252.80
56123;DHT22;42426;46.104;19.656;2023-12-28T02:43:22;153.70;2252.80
56123;DHT22;42426;46.104;19.656;2023-12-28T02:45:48;153.70;2252.80
56123;DHT22;42426;46.104;19.656;2023-12-28T02:48:13;153.60;2252.80
56123;DHT22;42426;46.104;19.656;2023-12-28T02:50:39;153.60;2252.80
56123;DHT22;42426;46.104;19.656;2023-12-28T02:53:05;153.60;2252.80
56123;DHT22;42426;46.104;19.656;2023-12-28T02:55:31;153.60;2252.80
56123;DHT22;42426;46.104;19.656;2023-12-28T02:57:58;153.60;2252.80
56123;DHT22;42426;46.104;19.656;2023-12-28T03:00:27;153.60;2252.80
56123;DHT22;42426;46.104;19.656;2023-12-28T03:02:53;153.60;2252.80
56123;DHT22;42426;46.104;19.656;2023-12-28T03:05:18;128.90;2252.80
56123;DHT22;42426;46.104;19.656;2023-12-28T03:07:44;128.90;2252.80
56123;DHT22;42426;46.104;19.656;2023-12-28T03:10:11;128.90;2252.80
56123;DHT22;42426;46.104;19.656;2023-12-28T03:12:37;128.80;2252.80
56123;DHT22;42426;46.104;19.656;2023-12-28T03:15:04;128.80;2252.80
56123;DHT22;42426;46.104;19.656;2023-12-28T03:17:30;128.80;2252.80
56123;DHT22;42426;46.104;19.656;2023-12-28T03:19:58;128.70;2252.80
56123;DHT22;42426;46.104;19.656;2023-12-28T03:22:24;128.70;2252.80
56123;DHT22;42426;46.104;19.656;2023-12-28T03:24:51;128.70;2252.80
56123;DHT22;42426;46.104;19.656;2023-12-28T03:27:17;128.70;2252.80
56123;DHT22;42426;46.104;19.656;2023-12-28T03:29:43;128.70;2252.80
56123;DHT22;42426;46.104;19.656;2023-12-28T03:32:09;128.70;2252.80
56123;DHT22;42426;46.104;19.656;2023-12-28T03:34:35;128.70;2252.80
56123;DHT22;42426;46.104;19.656;2023-12-28T03:37:02;128.60;2252.80
56123;DHT22;42426;46.104;19.656;2023-12-28T03:39:28;128.60;2252.80
56123;DHT22;42426;46.104;19.656;2023-12-28T03:41:54;128.60;2252.80
56123;DHT22;42426;46.104;19.656;2023-12-28T03:44:20;128.60;2252.80
56123;DHT22;42426;46.104;19.656;2023-12-28T03:46:50;128.60;2252.80
56123;DHT22;42426;46.104;19.656;2023-12-28T03:49:20;128.60;2252.80
56123;DHT22;42426;46.104;19.656;2023-12-28T03:51:47;128.50;2252.80
56123;DHT22;42426;46.104;19.656;2023-12-28T03:54:16;128.50;2252.80
56123;DHT22;42426;46.104;19.656;2023-12-28T03:56:42;128.60;2252.80
56123;DHT22;42426;46.104;19.656;2023-12-28T03:59:12;128.50;2252.80
56123;DHT22;42426;46.104;19.656;2023-12-28T04:01:37;128.50;2252.80
56123;DHT22;42426;46.104;19.656;2023-12-28T04:04:03;128.40;2252.80
56123;DHT22;42426;46.104;19.656;2023-12-28T04:06:30;128.40;2252.80
56123;DHT22;42426;46.104;19.656;2023-12-28T04:08:56;128.40;2252.80
56123;DHT22;42426;46.104;19.656;2023-12-28T04:11:22;128.30;2252.80
56123;DHT22;42426;46.104;19.656;2023-12-28T04:13:49;128.40;2252.80
56123;DHT22;42426;46.104;19.656;2023-12-28T04:16:15;128.30;2252.80
56123;DHT22;42426;46.104;19.656;2023-12-28T04:18:41;128.20;2252.80
56123;DHT22;42426;46.104;19.656;2023-12-28T04:21:09;128.30;2252.80
56123;DHT22;42426;46.104;19.656;2023-12-28T04:23:36;128.30;2252.80
56123;DHT22;42426;46.104;19.656;2023-12-28T04:26:03;128.30;2252.80
56123;DHT22;42426;46.104;19.656;2023-12-28T04:28:29;128.30;2252.80
56123;DHT22;42426;46.104;19.656;2023-12-28T04:30:55;128.30;2252.80
56123;DHT22;42426;46.104;19.656;2023-12-28T04:33:21;128.30;2252.80
56123;DHT22;42426;46.104;19.656;2023-12-28T04:35:47;128.20;2252.80
56123;DHT22;42426;46.104;19.656;2023-12-28T04:38:13;128.20;2252.80
56123;DHT22;42426;46.104;19.656;2023-12-28T04:40:39;128.20;2252.80
56123;DHT22;42426;46.104;19.656;2023-12-28T04:43:04;128.20;2252.80
56123;DHT22;42426;46.104;19.656;2023-12-28T04:45:30;128.10;2252.80
56123;DHT22;42426;46.104;19.656;2023-12-28T04:47:56;128.20;2252.80
56123;DHT22;42426;46.104;19.656;2023-12-28T04:50:22;128.20;2252.80
56123;DHT22;42426;46.104;19.656;2023-12-28T04:52:47;128.20;2252.80
56123;DHT22;42426;46.104;19.656;2023-12-28T04:55:13;128.20;2252.80
56123;DHT22;42426;46.104;19.656;2023-12-28T04:57:41;128.30;2252.80
56123;DHT22;42426;46.104;19.656;2023-12-28T05:00:07;128.00;2252.80
56123;DHT22;42426;46.104;19.656;2023-12-28T09:28:33;154.20;2252.80
56123;DHT22;42426;46.104;19.656;2023-12-28T09:31:00;154.10;2252.80
56123;DHT22;42426;46.104;19.656;2023-12-28T09:33:26;154.20;2252.80
56123;DHT22;42426;46.104;19.656;2023-12-28T09:35:52;154.30;2252.80
56123;DHT22;42426;46.104;19.656;2023-12-28T09:38:19;154.30;2252.80
56123;DHT22;42426;46.104;19.656;2023-12-28T09:40:45;154.40;2252.80
56123;DHT22;42426;46.104;19.656;2023-12-28T09:43:21;154.40;2252.80
56123;DHT22;42426;46.104;19.656;2023-12-28T09:45:48;154.50;2252.80
56123;DHT22;42426;46.104;19.656;2023-12-28T09:48:21;154.50;2252.80
56123;DHT22;42426;46.104;19.656;2023-12-28T09:50:54;179.20;2252.80
56123;DHT22;42426;46.104;19.656;2023-12-28T09:53:29;179.20;2252.80
56123;DHT22;42426;46.104;19.656;2023-12-28T09:55:55;179.30;2252.80
56123;DHT22;42426;46.104;19.656;2023-12-28T09:58:21;179.40;2252.80
56123;DHT22;42426;46.104;19.656;2023-12-28T10:00:49;179.40;2252.80
56123;DHT22;42426;46.104;19.656;2023-12-28T10:03:19;179.50;2252.80
56123;DHT22;42426;46.104;19.656;2023-12-28T10:05:45;179.40;2252.80
56123;DHT22;42426;46.104;19.656;2023-12-28T10:08:12;179.50;2252.80
56123;DHT22;42426;46.104;19.656;2023-12-28T10:10:41;179.50;2252.80
56123;DHT22;42426;46.104;19.656;2023-12-28T10:13:08;179.70;2252.80
56123;DHT22;42426;46.104;19.656;2023-12-28T10:15:36;179.80;2252.80
56123;DHT22;42426;46.104;19.656;2023-12-28T10:18:03;179.90;2252.80
56123;DHT22;42426;46.104;19.656;2023-12-28T10:20:30;179.90;2252.80
56123;DHT22;42426;46.104;19.656;2023-12-28T10:22:57;180.00;2252.80
56123;DHT22;42426;46.104;19.656;2023-12-28T10:25:23;180.10;2252.80
56123;DHT22;42426;46.104;19.656;2023-12-28T10:27:53;204.80;2252.80
56123;DHT22;42426;46.104;19.656;2023-12-28T10:30:22;204.90;2252.80
56123;DHT22;42426;46.104;19.656;2023-12-28T10:32:49;205.00;2252.80
56123;DHT22;42426;46.104;19.656;2023-12-28T10:35:14;205.10;2252.80
56123;DHT22;42426;46.104;19.656;2023-12-28T10:37:41;205.10;2252.80
56123;DHT22;42426;46.104;19.656;2023-12-28T10:40:15;205.20;2252.80
56123;DHT22;42426;46.104;19.656;2023-12-28T10:42:53;205.20;2252.80
56123;DHT22;42426;46.104;19.656;2023-12-28T10:45:20;205.30;2252.80
56123;DHT22;42426;46.104;19.656;2023-12-28T10:48:07;205.30;2252.80
56123;DHT22;42426;46.104;19.656;2023-12-28T10:50:42;205.40;2252.80
56123;DHT22;42426;46.104;19.656;2023-12-28T10:53:21;205.40;2252.80
56123;DHT22;42426;46.104;19.656;2023-12-28T11:01:28;205.60;2252.80
56123;DHT22;42426;46.104;19.656;2023-12-28T11:04:07;205.70;2252.80
56123;DHT22;42426;46.104;19.656;2023-12-28T11:06:35;205.70;2252.80
56123;DHT22;42426;46.104;19.656;2023-12-28T11:09:02;230.40;2252.80
56123;DHT22;42426;46.104;19.656;2023-12-28T11:11:29;230.50;2252.80
56123;DHT22;42426;46.104;19.656;2023-12-28T11:13:56;230.60;2252.80
56123;DHT22;42426;46.104;19.656;2023-12-28T11:16:23;230.60;2252.80
56123;DHT22;42426;46.104;19.656;2023-12-28T11:18:50;230.60;2252.80
56123;DHT22;42426;46.104;19.656;2023-12-28T11:21:17;230.70;2252.80
56123;DHT22;42426;46.104;19.656;2023-12-28T11:23:46;230.80;2252.80
56123;DHT22;42426;46.104;19.656;2023-12-28T11:26:18;230.90;2252.80
56123;DHT22;42426;46.104;19.656;2023-12-28T11:28:44;230.90;2252.80
56123;DHT22;42426;46.104;19.656;2023-12-28T11:31:10;231.10;2252.80
56123;DHT22;42426;46.104;19.656;2023-12-28T11:33:51;231.20;2252.80
56123;DHT22;42426;46.104;19.656;2023-12-28T11:36:32;231.20;2252.80
56123;DHT22;42426;46.104;19.656;2023-12-28T11:39:02;231.30;2252.80
56123;DHT22;42426;46.104;19.656;2023-12-28T11:41:31;231.30;2252.80
56123;DHT22;42426;46.104;19.656;2023-12-28T11:43:57;256.00;2252.80
56123;DHT22;42426;46.104;19.656;2023-12-28T11:46:24;256.20;2252.80
56123;DHT22;42426;46.104;19.656;2023-12-28T11:48:51;256.20;2252.80
56123;DHT22;42426;46.104;19.656;2023-12-28T11:51:17;256.30;2252.80
56123;DHT22;42426;46.104;19.656;2023-12-28T11:53:43;256.40;2252.80
56123;DHT22;42426;46.104;19.656;2023-12-28T11:56:15;256.50;2252.80
56123;DHT22;42426;46.104;19.656;2023-12-28T11:58:43;256.50;2252.80
56123;DHT22;42426;46.104;19.656;2023-12-28T12:01:11;256.60;2252.80
56123;DHT22;42426;46.104;19.656;2023-12-28T12:03:37;256.50;2252.80
56123;DHT22;42426;46.104;19.656;2023-12-28T12:06:04;256.60;2252.80
56123;DHT22;42426;46.104;19.656;2023-12-28T12:08:30;256.70;2252.80
56123;DHT22;42426;46.104;19.656;2023-12-28T12:11:01;256.70;2252.80
56123;DHT22;42426;46.104;19.656;2023-12-28T12:13:31;256.80;2252.80
56123;DHT22;42426;46.104;19.656;2023-12-28T12:15:57;256.80;2252.80
56123;DHT22;42426;46.104;19.656;2023-12-28T12:18:23;256.80;2252.80
56123;DHT22;42426;46.104;19.656;2023-12-28T12:20:50;256.80;2252.80
56123;DHT22;42426;46.104;19.656;2023-12-28T12:23:16;256.80;2252.80
56123;DHT22;42426;46.104;19.656;2023-12-28T12:25:42;256.80;2252.80
56123;DHT22;42426;46.104;19.656;2023-12-28T12:28:11;256.90;2252.80
56123;DHT22;42426;46.104;19.656;2023-12-28T12:30:37;256.90;2252.80
56123;DHT22;42426;46.104;19.656;2023-12-28T12:33:03;256.80;2252.80
56123;DHT22;42426;46.104;19.656;2023-12-28T12:35:29;256.90;2252.80
56123;DHT22;42426;46.104;19.656;2023-12-28T12:37:55;256.90;2252.80
56123;DHT22;42426;46.104;19.656;2023-12-28T12:40:21;256.90;2252.80
56123;DHT22;42426;46.104;19.656;2023-12-28T12:42:56;281.60;2278.40
56123;DHT22;42426;46.104;19.656;2023-12-28T12:45:22;281.60;2278.40
56123;DHT22;42426;46.104;19.656;2023-12-28T12:47:48;281.60;2278.40
56123;DHT22;42426;46.104;19.656;2023-12-28T12:50:16;281.60;2278.40
56123;DHT22;42426;46.104;19.656;2023-12-28T12:52:42;281.60;2278.40
56123;DHT22;42426;46.104;19.656;2023-12-28T12:55:14;281.70;2278.40
56123;DHT22;42426;46.104;19.656;2023-12-28T12:57:45;281.80;2278.40
56123;DHT22;42426;46.104;19.656;2023-12-28T13:00:13;281.80;2278.40
56123;DHT22;42426;46.104;19.656;2023-12-28T13:02:39;281.80;2278.40
56123;DHT22;42426;46.104;19.656;2023-12-28T13:05:05;281.80;2278.40
56123;DHT22;42426;46.104;19.656;2023-12-28T13:07:32;281.80;2278.40
56123;DHT22;42426;46.104;19.656;2023-12-28T13:09:57;281.80;2278.40
56123;DHT22;42426;46.104;19.656;2023-12-28T13:12:23;281.80;2278.40
56123;DHT22;42426;46.104;19.656;2023-12-28T13:14:50;281.80;2278.40
56123;DHT22;42426;46.104;19.656;2023-12-28T13:17:16;281.80;2278.40
56123;DHT22;42426;46.104;19.656;2023-12-28T13:19:42;281.80;2278.40
56123;DHT22;42426;46.104;19.656;2023-12-28T13:22:08;281.80;2278.40
56123;DHT22;42426;46.104;19.656;2023-12-28T13:24:34;281.80;2278.40
56123;DHT22;42426;46.104;19.656;2023-12-28T13:26:59;281.80;2278.40
56123;DHT22;42426;46.104;19.656;2023-12-28T13:29:26;281.80;2278.40
56123;DHT22;42426;46.104;19.656;2023-12-28T13:31:52;281.80;2278.40
56123;DHT22;42426;46.104;19.656;2023-12-28T13:34:18;281.90;2278.40
56123;DHT22;42426;46.104;19.656;2023-12-28T13:36:48;281.90;2278.40
56123;DHT22;42426;46.104;19.656;2023-12-28T13:39:14;281.90;2278.40
56123;DHT22;42426;46.104;19.656;2023-12-28T13:41:41;281.90;2278.40
56123;DHT22;42426;46.104;19.656;2023-12-28T13:44:07;281.90;2278.40
56123;DHT22;42426;46.104;19.656;2023-12-28T13:46:38;281.90;2278.40
56123;DHT22;42426;46.104;19.656;2023-12-28T13:49:04;281.90;2278.40
56123;DHT22;42426;46.104;19.656;2023-12-28T13:51:33;281.60;2278.40
56123;DHT22;42426;46.104;19.656;2023-12-28T13:53:59;281.90;2278.40
56123;DHT22;42426;46.104;19.656;2023-12-28T13:56:25;281.90;2278.40
56123;DHT22;42426;46.104;19.656;2023-12-28T13:58:50;281.90;2278.40
56123;DHT22;42426;46.104;19.656;2023-12-28T14:01:16;281.90;2278.40
56123;DHT22;42426;46.104;19.656;2023-12-28T14:03:42;281.90;2278.40
56123;DHT22;42426;46.104;19.656;2023-12-28T14:06:09;281.90;2278.40
56123;DHT22;42426;46.104;19.656;2023-12-28T14:08:35;281.90;2278.40
56123;DHT22;42426;46.104;19.656;2023-12-28T14:11:02;281.90;2278.40
56123;DHT22;42426;46.104;19.656;2023-12-28T14:13:27;281.90;2278.40
56123;DHT22;42426;46.104;19.656;2023-12-28T14:15:54;281.90;2278.40
56123;DHT22;42426;46.104;19.656;2023-12-28T14:18:20;281.90;2278.40
56123;DHT22;42426;46.104;19.656;2023-12-28T14:20:45;281.80;2278.40
56123;DHT22;42426;46.104;19.656;2023-12-28T14:23:11;281.80;2278.40
56123;DHT22;42426;46.104;19.656;2023-12-28T14:25:38;281.80;2278.40
56123;DHT22;42426;46.104;19.656;2023-12-28T14:28:09;281.80;2278.40
56123;DHT22;42426;46.104;19.656;2023-12-28T14:30:35;281.70;2278.40
56123;DHT22;42426;46.104;19.656;2023-12-28T14:33:01;281.60;2278.40
56123;DHT22;42426;46.104;19.656;2023-12-28T14:35:28;281.60;2278.40
56123;DHT22;42426;46.104;19.656;2023-12-28T14:37:54;281.60;2278.40
56123;DHT22;42426;46.104;19.656;2023-12-28T14:40:20;256.90;2252.80
56123;DHT22;42426;46.104;19.656;2023-12-28T14:42:46;256.90;2252.80
56123;DHT22;42426;46.104;19.656;2023-12-28T14:45:11;256.80;2252.80
56123;DHT22;42426;46.104;19.656;2023-12-28T14:47:37;256.80;2252.80
56123;DHT22;42426;46.104;19.656;2023-12-28T14:50:03;256.80;2252.80
56123;DHT22;42426;46.104;19.656;2023-12-28T14:52:31;256.70;2252.80
56123;DHT22;42426;46.104;19.656;2023-12-28T14:54:57;256.60;2252.80
56123;DHT22;42426;46.104;19.656;2023-12-28T14:57:22;256.50;2252.80
56123;DHT22;42426;46.104;19.656;2023-12-28T14:59:48;256.50;2252.80
56123;DHT22;42426;46.104;19.656;2023-12-28T15:02:14;256.40;2252.80
56123;DHT22;42426;46.104;19.656;2023-12-28T15:04:40;256.40;2252.80
56123;DHT22;42426;46.104;19.656;2023-12-28T15:07:07;256.30;2252.80
56123;DHT22;42426;46.104;19.656;2023-12-28T15:09:33;256.20;2252.80
56123;DHT22;42426;46.104;19.656;2023-12-28T15:11:59;256.20;2252.80
56123;DHT22;42426;46.104;19.656;2023-12-28T15:14:26;256.20;2252.80
56123;DHT22;42426;46.104;19.656;2023-12-28T15:16:52;256.00;2252.80
56123;DHT22;42426;46.104;19.656;2023-12-28T15:19:18;231.30;2252.80
56123;DHT22;42426;46.104;19.656;2023-12-28T15:21:44;231.30;2252.80
56123;DHT22;42426;46.104;19.656;2023-12-28T15:24:11;231.10;2252.80
56123;DHT22;42426;46.104;19.656;2023-12-28T15:26:37;231.10;2252.80
56123;DHT22;42426;46.104;19.656;2023-12-28T15:29:03;231.00;2252.80
56123;DHT22;42426;46.104;19.656;2023-12-28T15:31:29;231.00;2252.80
56123;DHT22;42426;46.104;19.656;2023-12-28T15:33:55;231.00;2252.80
56123;DHT22;42426;46.104;19.656;2023-12-28T15:36:22;230.90;2252.80
56123;DHT22;42426;46.104;19.656;2023-12-28T15:38:47;230.90;2252.80
56123;DHT22;42426;46.104;19.656;2023-12-28T15:41:13;230.80;2252.80
56123;DHT22;42426;46.104;19.656;2023-12-28T15:43:40;230.80;2252.80
56123;DHT22;42426;46.104;19.656;2023-12-28T15:46:06;230.70;2252.80
56123;DHT22;42426;46.104;19.656;2023-12-28T15:48:32;230.70;2252.80
56123;DHT22;42426;46.104;19.656;2023-12-28T15:50:59;230.70;2252.80
56123;DHT22;42426;46.104;19.656;2023-12-28T15:53:25;230.70;2252.80
56123;DHT22;42426;46.104;19.656;2023-12-28T15:55:51;230.60;2252.80
56123;DHT22;42426;46.104;19.656;2023-12-28T15:58:17;230.60;2252.80
56123;DHT22;42426;46.104;19.656;2023-12-28T16:00:42;230.50;2252.80
56123;DHT22;42426;46.104;19.656;2023-12-28T16:03:10;230.50;2252.80
56123;DHT22;42426;46.104;19.656;2023-12-28T16:05:37;230.40;2252.80
56123;DHT22;42426;46.104;19.656;2023-12-28T16:08:04;230.40;2252.80
56123;DHT22;42426;46.104;19.656;2023-12-28T16:10:30;230.40;2252.80
56123;DHT22;42426;46.104;19.656;2023-12-28T16:12:55;205.70;2252.80
56123;DHT22;42426;46.104;19.656;2023-12-28T16:15:22;205.70;2252.80
56123;DHT22;42426;46.104;19.656;2023-12-28T16:17:48;205.70;2252.80
56123;DHT22;42426;46.104;19.656;2023-12-28T16:20:14;205.70;2252.80
56123;DHT22;42426;46.104;19.656;2023-12-28T16:22:41;205.70;2252.80
56123;DHT22;42426;46.104;19.656;2023-12-28T16:25:07;205.70;2252.80
56123;DHT22;42426;46.104;19.656;2023-12-28T16:27:33;205.70;2252.80
56123;DHT22;42426;46.104;19.656;2023-12-28T16:29:59;205.60;2252.80
56123;DHT22;42426;46.104;19.656;2023-12-28T16:32:24;205.60;2252.80
56123;DHT22;42426;46.104;19.656;2023-12-28T16:34:52;205.50;2252.80
56123;DHT22;42426;46.104;19.656;2023-12-28T16:37:19;205.50;2252.80
56123;DHT22;42426;46.104;19.656;2023-12-28T16:39:45;205.50;2252.80
56123;DHT22;42426;46.104;19.656;2023-12-28T16:42:11;205.50;2252.80
56123;DHT22;42426;46.104;19.656;2023-12-28T16:44:40;205.40;2252.80
56123;DHT22;42426;46.104;19.656;2023-12-28T16:47:09;205.40;2252.80
56123;DHT22;42426;46.104;19.656;2023-12-28T16:49:35;205.30;2252.80
56123;DHT22;42426;46.104;19.656;2023-12-28T16:52:00;205.30;2252.80
56123;DHT22;42426;46.104;19.656;2023-12-28T16:54:26;205.30;2252.80
56123;DHT22;42426;46.104;19.656;2023-12-28T16:56:52;205.20;2252.80
56123;DHT22;42426;46.104;19.656;2023-12-28T17:09:23;205.10;2252.80
56123;DHT22;42426;46.104;19.656;2023-12-28T17:15:12;204.90;2252.80
56123;DHT22;42426;46.104;19.656;2023-12-28T17:21:01;205.00;2252.80
56123;DHT22;42426;46.104;19.656;2023-12-28T17:26:51;204.80;2252.80
56123;DHT22;42426;46.104;19.656;2023-12-28T17:32:47;204.80;2252.80
56123;DHT22;42426;46.104;19.656;2023-12-28T17:38:35;180.10;2252.80
56123;DHT22;42426;46.104;19.656;2023-12-28T17:44:26;180.10;2252.80
56123;DHT22;42426;46.104;19.656;2023-12-28T17:50:19;180.10;2252.80
56123;DHT22;42426;46.104;19.656;2023-12-28T17:59:54;180.10;2252.80
56123;DHT22;42426;46.104;19.656;2023-12-28T18:05:41;204.80;2252.80
56123;DHT22;42426;46.104;19.656;2023-12-28T18:11:29;180.00;2252.80
56123;DHT22;42426;46.104;19.656;2023-12-28T18:17:16;180.00;2252.80
56123;DHT22;42426;46.104;19.656;2023-12-28T18:23:04;180.00;2252.80
56123;DHT22;42426;46.104;19.656;2023-12-28T18:28:52;180.00;2252.80
56123;DHT22;42426;46.104;19.656;2023-12-28T18:34:44;180.00;2252.80
56123;DHT22;42426;46.104;19.656;2023-12-28T18:40:32;179.90;2252.80
56123;DHT22;42426;46.104;19.656;2023-12-28T18:46:19;179.90;2252.80
56123;DHT22;42426;46.104;19.656;2023-12-28T18:52:07;179.90;2252.80
56123;DHT22;42426;46.104;19.656;2023-12-28T19:01:30;179.80;2252.80
56123;DHT22;42426;46.104;19.656;2023-12-28T19:07:17;179.70;2252.80
56123;DHT22;42426;46.104;19.656;2023-12-28T19:09:43;179.60;2252.80
56123;DHT22;42426;46.104;19.656;2023-12-28T19:12:10;179.60;2252.80
56123;DHT22;42426;46.104;19.656;2023-12-28T19:14:42;179.60;2252.80
56123;DHT22;42426;46.104;19.656;2023-12-28T19:17:09;179.60;2252.80
56123;DHT22;42426;46.104;19.656;2023-12-28T19:19:36;179.60;2252.80
56123;DHT22;42426;46.104;19.656;2023-12-28T19:22:03;179.50;2252.80
56123;DHT22;42426;46.104;19.656;2023-12-28T19:24:29;179.50;2252.80
56123;DHT22;42426;46.104;19.656;2023-12-28T19:26:55;179.50;2252.80
56123;DHT22;42426;46.104;19.656;2023-12-28T19:29:21;179.50;2252.80
56123;DHT22;42426;46.104;19.656;2023-12-28T19:31:47;179.50;2252.80
56123;DHT22;42426;46.104;19.656;2023-12-28T19:34:12;179.50;2252.80
56123;DHT22;42426;46.104;19.656;2023-12-28T19:36:38;179.40;2252.80
56123;DHT22;42426;46.104;19.656;2023-12-28T19:39:04;179.40;2252.80
56123;DHT22;42426;46.104;19.656;2023-12-28T19:41:31;179.30;2252.80
56123;DHT22;42426;46.104;19.656;2023-12-28T19:43:56;179.40;2252.80
56123;DHT22;42426;46.104;19.656;2023-12-28T19:46:22;179.30;2252.80
56123;DHT22;42426;46.104;19.656;2023-12-28T19:48:48;179.30;2252.80
56123;DHT22;42426;46.104;19.656;2023-12-28T19:51:13;179.30;2252.80
56123;DHT22;42426;46.104;19.656;2023-12-28T19:53:39;179.30;2252.80
56123;DHT22;42426;46.104;19.656;2023-12-28T19:56:06;179.20;2252.80
56123;DHT22;42426;46.104;19.656;2023-12-28T19:58:34;179.20;2252.80
56123;DHT22;42426;46.104;19.656;2023-12-28T20:01:00;179.20;2252.80
56123;DHT22;42426;46.104;19.656;2023-12-28T20:03:26;179.20;2252.80
56123;DHT22;42426;46.104;19.656;2023-12-28T20:05:52;179.20;2252.80
56123;DHT22;42426;46.104;19.656;2023-12-28T20:08:20;179.20;2252.80
56123;DHT22;42426;46.104;19.656;2023-12-28T20:10:45;154.50;2252.80
56123;DHT22;42426;46.104;19.656;2023-12-28T20:13:11;154.50;2252.80
56123;DHT22;42426;46.104;19.656;2023-12-28T20:15:37;154.50;2252.80
56123;DHT22;42426;46.104;19.656;2023-12-28T20:18:03;154.50;2252.80
56123;DHT22;42426;46.104;19.656;2023-12-28T20:20:30;154.50;2252.80
56123;DHT22;42426;46.104;19.656;2023-12-28T20:22:56;154.50;2252.80
56123;DHT22;42426;46.104;19.656;2023-12-28T20:25:22;154.40;2252.80
56123;DHT22;42426;46.104;19.656;2023-12-28T20:27:47;154.40;2252.80